createdAt,value
2023-09-30T00:01:59.841Z,70.31
2023-09-30T00:04:28.900Z,70.38
2023-09-30T00:06:55.877Z,70.36
2023-09-30T00:09:23.238Z,70.16
2023-09-30T00:11:50.045Z,70.32
2023-09-30T00:14:18.195Z,70.26
2023-09-30T00:16:45.831Z,70.34
2023-09-30T00:19:12.716Z,70.87
2023-09-30T00:21:39.771Z,71.12
2023-09-30T00:24:06.742Z,71.16
2023-09-30T00:26:33.562Z,70.52
2023-09-30T00:29:00.561Z,70.54
2023-09-30T00:31:27.537Z,70.39
2023-09-30T00:33:55.802Z,70.72
2023-09-30T00:36:22.978Z,70.82
2023-09-30T00:38:49.846Z,70.40
2023-09-30T00:41:16.676Z,69.37
2023-09-30T00:43:43.553Z,69.19
2023-09-30T00:46:23.235Z,68.79
2023-09-30T00:48:50.435Z,69.52
2023-09-30T00:51:17.524Z,69.97
2023-09-30T00:53:44.877Z,70.57
2023-09-30T00:56:11.980Z,70.06
2023-09-30T00:58:39.615Z,68.99
2023-09-30T01:01:06.880Z,69.05
2023-09-30T01:03:33.953Z,69.97
2023-09-30T01:06:00.913Z,69.78
2023-09-30T01:08:28.725Z,69.99
2023-09-30T01:10:56.324Z,70.38
2023-09-30T01:13:23.241Z,70.85
2023-09-30T01:15:50.287Z,71.46
2023-09-30T01:18:18.197Z,71.71
2023-09-30T01:20:45.399Z,71.99
2023-09-30T01:23:13.145Z,72.24
2023-09-30T01:25:40.686Z,72.39
2023-09-30T01:28:11.195Z,72.63
2023-09-30T01:30:37.979Z,72.41
2023-09-30T01:33:05.027Z,72.70
2023-09-30T01:35:31.776Z,72.96
2023-09-30T01:37:58.539Z,72.79
2023-09-30T01:40:25.289Z,72.57
2023-09-30T01:42:52.198Z,73.23
2023-09-30T01:45:19.044Z,73.44
2023-09-30T01:47:46.153Z,73.13
2023-09-30T01:50:13.063Z,73.34
2023-09-30T01:52:40.036Z,73.63
2023-09-30T01:55:07.685Z,73.26
2023-09-30T01:57:34.823Z,73.25
2023-09-30T02:00:01.881Z,72.79
2023-09-30T02:02:29.272Z,72.91
2023-09-30T02:04:56.115Z,73.30
2023-09-30T02:07:22.969Z,73.19
2023-09-30T02:09:50.133Z,73.29
2023-09-30T02:12:17.326Z,73.42
2023-09-30T02:14:47.596Z,73.46
2023-09-30T02:17:14.618Z,73.36
2023-09-30T02:19:41.699Z,73.45
2023-09-30T02:22:08.594Z,73.12
2023-09-30T02:24:35.596Z,73.49
2023-09-30T02:27:02.704Z,73.84
2023-09-30T02:29:29.460Z,73.73
2023-09-30T02:31:56.273Z,73.67
2023-09-30T02:34:23.788Z,73.71
2023-09-30T02:36:50.978Z,73.84
2023-09-30T02:39:17.853Z,73.76
2023-09-30T02:41:44.927Z,73.79
2023-09-30T02:44:12.239Z,73.89
2023-09-30T02:46:39.186Z,73.86
2023-09-30T02:49:06.932Z,73.46
2023-09-30T02:51:33.699Z,73.78
2023-09-30T02:54:00.585Z,73.64
2023-09-30T02:56:29.320Z,73.43
2023-09-30T02:58:56.614Z,73.63
2023-09-30T03:01:23.493Z,73.60
2023-09-30T03:03:51.257Z,73.62
2023-09-30T03:06:19.961Z,73.23
2023-09-30T03:08:47.884Z,72.90
2023-09-30T03:11:14.790Z,73.36
2023-09-30T03:13:43.608Z,72.93
2023-09-30T03:16:10.669Z,73.22
2023-09-30T03:18:37.456Z,73.51
2023-09-30T03:21:14.859Z,73.92
2023-09-30T03:23:41.731Z,73.60
2023-09-30T03:26:11.534Z,73.53
2023-09-30T03:28:39.416Z,73.36
2023-09-30T03:31:07.049Z,73.59
2023-09-30T03:33:34.093Z,73.27
2023-09-30T03:36:00.942Z,73.34
2023-09-30T03:38:27.952Z,73.22
2023-09-30T03:40:55.807Z,73.64
2023-09-30T03:43:24.073Z,73.47
2023-09-30T03:45:51.378Z,73.39
2023-09-30T03:48:19.983Z,73.65
2023-09-30T03:50:46.952Z,73.41
2023-09-30T03:53:14.116Z,73.70
2023-09-30T03:55:41.927Z,73.37
2023-09-30T03:58:09.038Z,73.64
2023-09-30T04:00:36.980Z,73.63
2023-09-30T04:03:04.193Z,73.36
2023-09-30T04:05:33.103Z,73.40
2023-09-30T04:08:00.014Z,73.64
2023-09-30T04:10:26.798Z,73.66
2023-09-30T04:12:53.960Z,73.34
2023-09-30T04:15:20.888Z,73.57
2023-09-30T04:17:49.515Z,74.02
2023-09-30T04:20:22.823Z,74.18
2023-09-30T04:22:50.736Z,74.57
2023-09-30T04:25:19.193Z,74.62
2023-09-30T04:27:50.069Z,74.99
2023-09-30T04:30:20.567Z,74.94
2023-09-30T04:32:47.541Z,74.85
2023-09-30T04:35:14.426Z,75.15
2023-09-30T04:37:41.721Z,75.29
2023-09-30T04:40:21.332Z,74.88
2023-09-30T04:42:48.691Z,75.07
2023-09-30T04:45:21.459Z,75.02
2023-09-30T04:47:50.458Z,74.99
2023-09-30T04:50:17.815Z,74.80
2023-09-30T04:52:46.268Z,74.85
2023-09-30T04:55:13.609Z,74.77
2023-09-30T04:57:40.609Z,74.45
2023-09-30T05:00:12.579Z,74.38
2023-09-30T05:02:39.488Z,74.55
2023-09-30T05:05:09.684Z,74.60
2023-09-30T05:07:36.806Z,74.77
2023-09-30T05:10:11.163Z,74.38
2023-09-30T05:12:38.527Z,74.54
2023-09-30T05:15:07.178Z,74.57
2023-09-30T05:17:34.261Z,74.61
2023-09-30T05:20:01.135Z,74.59
2023-09-30T05:22:28.340Z,74.52
2023-09-30T05:24:55.405Z,74.68
2023-09-30T05:27:22.317Z,74.94
2023-09-30T05:29:49.985Z,74.79
2023-09-30T05:32:16.804Z,74.96
2023-09-30T05:34:44.831Z,75.15
2023-09-30T05:37:13.278Z,74.97
2023-09-30T05:39:40.152Z,75.12
2023-09-30T05:42:08.016Z,75.02
2023-09-30T05:44:34.821Z,75.60
2023-09-30T05:47:01.682Z,75.42
2023-09-30T05:49:28.597Z,75.13
2023-09-30T05:51:56.330Z,75.50
2023-09-30T05:54:23.922Z,75.57
2023-09-30T05:56:50.842Z,75.64
2023-09-30T05:59:17.645Z,75.98
2023-09-30T06:01:44.745Z,76.29
2023-09-30T06:04:11.768Z,75.80
2023-09-30T06:06:39.602Z,75.84
2023-09-30T06:09:08.980Z,76.08
2023-09-30T06:11:37.258Z,76.13
2023-09-30T06:14:07.603Z,76.20
2023-09-30T06:16:35.990Z,75.83
2023-09-30T06:19:03.224Z,75.80
2023-09-30T06:21:30.704Z,75.91
2023-09-30T06:23:57.676Z,76.28
2023-09-30T06:26:26.193Z,75.97
2023-09-30T06:28:55.414Z,75.89
2023-09-30T06:31:22.411Z,76.10
2023-09-30T06:33:49.425Z,75.90
2023-09-30T06:36:16.732Z,76.00
2023-09-30T06:38:44.828Z,75.60
2023-09-30T06:41:17.062Z,75.89
2023-09-30T06:43:44.355Z,76.17
2023-09-30T06:46:11.477Z,76.23
2023-09-30T06:48:38.919Z,75.95
2023-09-30T06:51:05.712Z,75.94
2023-09-30T06:53:32.499Z,75.93
2023-09-30T06:55:59.450Z,75.79
2023-09-30T06:58:26.429Z,75.81
2023-09-30T07:00:54.714Z,76.02
2023-09-30T07:03:24.952Z,76.06
2023-09-30T07:05:55.522Z,75.87
2023-09-30T07:08:22.645Z,75.80
2023-09-30T07:10:53.819Z,75.77
2023-09-30T07:13:21.889Z,76.06
2023-09-30T07:15:49.039Z,75.94
2023-09-30T07:18:17.080Z,75.89
2023-09-30T07:20:44.127Z,75.67
2023-09-30T07:23:19.210Z,76.07
2023-09-30T07:25:47.255Z,76.11
2023-09-30T07:28:14.364Z,75.98
2023-09-30T07:30:41.451Z,75.92
2023-09-30T07:33:08.522Z,75.77
2023-09-30T07:35:36.013Z,76.07
2023-09-30T07:38:05.315Z,75.81
2023-09-30T07:40:32.021Z,75.96
2023-09-30T07:42:58.973Z,75.63
2023-09-30T07:45:26.105Z,74.79
2023-09-30T07:47:53.146Z,74.78
2023-09-30T07:50:20.218Z,74.35
2023-09-30T07:52:47.617Z,74.48
2023-09-30T07:55:14.584Z,74.34
2023-09-30T07:57:43.474Z,74.74
2023-09-30T08:00:16.135Z,74.15
2023-09-30T08:02:44.034Z,73.50
2023-09-30T08:05:10.928Z,73.63
2023-09-30T08:07:38.207Z,73.23
2023-09-30T08:10:06.344Z,72.69
2023-09-30T08:12:34.326Z,72.67
2023-09-30T08:15:01.295Z,72.51
2023-09-30T08:17:28.093Z,72.41
2023-09-30T08:19:54.895Z,72.20
2023-09-30T08:22:22.324Z,72.38
2023-09-30T08:24:49.086Z,72.14
2023-09-30T08:27:16.430Z,72.07
2023-09-30T08:29:43.566Z,71.85
2023-09-30T08:32:11.177Z,72.12
2023-09-30T08:34:37.951Z,71.72
2023-09-30T08:37:04.795Z,71.57
2023-09-30T08:39:31.606Z,71.48
2023-09-30T08:41:59.160Z,71.79
2023-09-30T08:44:27.342Z,71.59
2023-09-30T08:46:55.249Z,71.12
2023-09-30T08:49:22.493Z,71.36
2023-09-30T08:51:50.454Z,71.35
2023-09-30T08:54:17.889Z,71.40
2023-09-30T08:56:49.616Z,70.75
2023-09-30T08:59:16.448Z,71.18
2023-09-30T09:01:43.506Z,70.74
2023-09-30T09:04:10.448Z,70.85
2023-09-30T09:06:37.464Z,70.25
2023-09-30T09:09:18.051Z,69.84
2023-09-30T09:11:47.984Z,70.23
2023-09-30T09:14:15.885Z,69.81
2023-09-30T09:16:56.005Z,69.38
2023-09-30T09:19:23.469Z,69.89
2023-09-30T09:22:00.998Z,69.16
2023-09-30T09:24:43.374Z,68.98
2023-09-30T09:27:17.594Z,69.10
2023-09-30T09:29:45.979Z,68.21
2023-09-30T09:32:17.379Z,65.87
2023-09-30T09:34:45.610Z,67.11
2023-09-30T09:37:21.048Z,66.74
2023-09-30T09:39:51.946Z,67.36
2023-09-30T09:42:37.866Z,64.53
2023-09-30T09:45:06.477Z,65.95
2023-09-30T09:47:34.179Z,66.09
2023-09-30T09:50:01.551Z,66.44
2023-09-30T09:52:28.631Z,66.53
2023-09-30T09:54:55.728Z,66.39
2023-09-30T09:57:23.279Z,66.38
2023-09-30T09:59:50.532Z,65.72
2023-09-30T10:02:19.214Z,66.05
2023-09-30T10:04:46.721Z,66.27
2023-09-30T10:07:20.476Z,65.86
2023-09-30T10:09:51.520Z,65.75
2023-09-30T10:12:19.687Z,65.59
2023-09-30T10:14:46.763Z,64.93
2023-09-30T10:17:13.478Z,64.92
2023-09-30T10:20:07.468Z,63.39
2023-09-30T10:22:34.412Z,64.56
2023-09-30T10:25:02.134Z,64.41
2023-09-30T10:27:34.539Z,64.23
2023-09-30T10:30:09.794Z,63.51
2023-09-30T10:32:52.035Z,62.34
2023-09-30T10:35:19.800Z,63.21
2023-09-30T10:37:46.959Z,62.56
2023-09-30T10:40:30.394Z,61.75
2023-09-30T10:42:58.084Z,62.70
2023-09-30T10:45:46.192Z,60.77
2023-09-30T10:48:41.774Z,60.37
2023-09-30T10:51:13.175Z,61.19
2023-09-30T10:53:44.819Z,60.36
2023-09-30T10:56:11.599Z,60.84
2023-09-30T10:58:42.571Z,59.54
2023-09-30T11:01:09.834Z,58.96
2023-09-30T11:03:37.428Z,59.71
2023-09-30T11:06:12.472Z,59.91
2023-09-30T11:08:42.384Z,60.03
2023-09-30T11:11:09.282Z,59.70
2023-09-30T11:13:37.040Z,57.63
2023-09-30T11:16:09.644Z,58.19
2023-09-30T11:18:39.324Z,58.69
2023-09-30T11:21:11.915Z,58.24
2023-09-30T11:23:39.330Z,59.02
2023-09-30T11:26:06.313Z,57.98
2023-09-30T11:28:43.104Z,56.21
2023-09-30T11:33:52.813Z,56.94
2023-09-30T11:36:24.028Z,58.34
2023-09-30T11:38:54.097Z,58.32
2023-09-30T11:41:21.140Z,58.17
2023-09-30T11:44:16.168Z,56.38
2023-09-30T11:46:53.771Z,56.96
2023-09-30T11:49:41.855Z,57.00
2023-09-30T11:52:11.002Z,58.62
2023-09-30T11:54:44.349Z,57.75
2023-09-30T11:57:16.947Z,57.13
2023-09-30T11:59:48.278Z,58.06
2023-09-30T12:02:16.952Z,58.51
2023-09-30T12:04:45.527Z,57.90
2023-09-30T12:07:12.975Z,58.37
2023-09-30T12:09:40.802Z,58.25
2023-09-30T12:12:10.494Z,58.11
2023-09-30T12:14:37.943Z,57.62
2023-09-30T12:17:04.920Z,56.83
2023-09-30T12:19:31.896Z,56.69
2023-09-30T12:21:59.560Z,57.15
2023-09-30T12:24:27.946Z,56.71
2023-09-30T12:26:55.705Z,55.40
2023-09-30T12:29:23.869Z,55.85
2023-09-30T12:31:54.734Z,55.24
2023-09-30T12:34:28.359Z,55.45
2023-09-30T12:36:57.037Z,54.25
2023-09-30T12:39:26.626Z,54.95
2023-09-30T12:41:54.605Z,54.50
2023-09-30T12:44:21.609Z,55.35
2023-09-30T12:46:48.770Z,55.39
2023-09-30T12:49:16.277Z,55.67
2023-09-30T12:51:43.469Z,56.12
2023-09-30T12:54:11.945Z,55.90
2023-09-30T12:56:39.133Z,54.96
2023-09-30T12:59:05.961Z,54.86
2023-09-30T13:01:35.489Z,54.28
2023-09-30T13:04:03.435Z,54.82
2023-09-30T13:06:31.314Z,54.54
2023-09-30T13:08:58.656Z,54.75
2023-09-30T13:11:25.709Z,54.91
2023-09-30T13:13:52.506Z,53.83
2023-09-30T13:16:19.606Z,54.51
2023-09-30T13:18:46.532Z,54.84
2023-09-30T13:21:13.616Z,54.36
2023-09-30T13:23:40.469Z,54.14
2023-09-30T13:26:07.291Z,54.26
2023-09-30T13:28:34.129Z,53.58
2023-09-30T13:31:01.028Z,52.71
2023-09-30T13:33:28.128Z,52.55
2023-09-30T13:35:56.716Z,52.02
2023-09-30T13:38:23.767Z,52.36
2023-09-30T13:40:50.637Z,52.27
2023-09-30T13:43:17.451Z,52.37
2023-09-30T13:45:45.730Z,52.87
2023-09-30T13:48:12.981Z,52.69
2023-09-30T13:50:40.060Z,52.93
2023-09-30T13:53:09.326Z,52.79
2023-09-30T13:55:39.363Z,52.88
2023-09-30T13:58:06.229Z,53.48
2023-09-30T14:00:33.162Z,53.92
2023-09-30T14:03:01.591Z,53.93
2023-09-30T14:05:28.926Z,53.54
2023-09-30T14:07:58.421Z,53.84
2023-09-30T14:10:25.390Z,53.83
2023-09-30T14:13:00.412Z,53.62
2023-09-30T14:15:32.315Z,53.83
2023-09-30T14:18:03.614Z,53.80
2023-09-30T14:20:31.251Z,53.86
2023-09-30T14:22:58.125Z,53.33
2023-09-30T14:25:25.116Z,52.79
2023-09-30T14:27:51.962Z,53.16
2023-09-30T14:30:18.880Z,53.43
2023-09-30T14:32:45.705Z,53.67
2023-09-30T14:35:12.514Z,53.71
2023-09-30T14:37:39.327Z,53.34
2023-09-30T14:40:07.119Z,53.34
2023-09-30T14:42:34.045Z,52.84
2023-09-30T14:45:00.955Z,52.86
2023-09-30T14:47:30.980Z,52.28
2023-09-30T14:50:02.926Z,52.28
2023-09-30T14:52:47.223Z,51.93
2023-09-30T14:55:24.542Z,52.23
2023-09-30T14:57:54.177Z,52.90
2023-09-30T15:00:31.186Z,54.38
2023-09-30T15:03:22.440Z,53.05
2023-09-30T15:06:02.204Z,53.09
2023-09-30T15:08:30.286Z,52.80
2023-09-30T15:11:09.552Z,54.11
2023-09-30T15:13:51.651Z,53.66
2023-09-30T15:16:22.309Z,54.22
2023-09-30T15:18:50.237Z,54.50
2023-09-30T15:21:17.256Z,54.46
2023-09-30T15:23:44.681Z,55.50
2023-09-30T15:26:11.636Z,55.82
2023-09-30T15:28:39.184Z,55.98
2023-09-30T15:31:07.853Z,56.68
2023-09-30T15:33:35.169Z,56.29
2023-09-30T15:36:15.235Z,57.05
2023-09-30T15:38:42.101Z,56.91
2023-09-30T15:41:09.877Z,56.60
2023-09-30T15:43:37.184Z,56.52
2023-09-30T15:46:04.561Z,56.57
2023-09-30T15:48:31.935Z,56.56
2023-09-30T15:50:58.812Z,56.53
2023-09-30T15:53:25.830Z,56.31
2023-09-30T15:55:53.907Z,56.37
2023-09-30T15:58:20.793Z,56.50
2023-09-30T16:00:49.950Z,56.41
2023-09-30T16:03:17.093Z,56.55
2023-09-30T16:05:44.112Z,56.65
2023-09-30T16:08:11.910Z,57.17
2023-09-30T16:10:38.999Z,57.83
2023-09-30T16:13:07.742Z,58.27
2023-09-30T16:15:36.035Z,58.60
2023-09-30T16:18:03.571Z,59.07
2023-09-30T16:20:30.517Z,58.90
2023-09-30T16:22:57.485Z,58.97
2023-09-30T16:25:25.134Z,59.48
2023-09-30T16:27:53.936Z,59.46
2023-09-30T16:30:22.948Z,59.70
2023-09-30T16:32:49.881Z,60.15
2023-09-30T16:35:16.776Z,60.17
2023-09-30T16:37:43.787Z,60.36
2023-09-30T16:40:12.838Z,60.54
2023-09-30T16:42:42.927Z,60.98
2023-09-30T16:45:18.856Z,60.94
2023-09-30T16:47:53.191Z,60.72
2023-09-30T16:50:20.019Z,60.33
2023-09-30T16:52:46.894Z,60.79
2023-09-30T16:55:13.783Z,60.68
2023-09-30T16:57:42.054Z,60.43
2023-09-30T17:00:09.352Z,60.16
2023-09-30T17:02:36.319Z,60.20
2023-09-30T17:05:04.303Z,60.22
2023-09-30T17:07:31.348Z,60.92
2023-09-30T17:09:58.215Z,61.04
2023-09-30T17:12:26.304Z,60.99
2023-09-30T17:14:55.652Z,61.38
2023-09-30T17:17:23.383Z,61.06
2023-09-30T17:19:50.459Z,60.91
2023-09-30T17:22:18.874Z,61.21
2023-09-30T17:24:46.137Z,61.03
2023-09-30T17:27:13.042Z,61.03
2023-09-30T17:29:40.451Z,61.35
2023-09-30T17:32:07.918Z,61.33
2023-09-30T17:34:41.091Z,61.49
2023-09-30T17:37:08.129Z,61.76
2023-09-30T17:39:34.987Z,62.12
2023-09-30T17:42:01.820Z,62.21
2023-09-30T17:44:28.941Z,62.21
2023-09-30T17:46:55.801Z,62.61
2023-09-30T17:49:22.824Z,62.75
2023-09-30T17:51:50.182Z,62.92
2023-09-30T17:54:17.222Z,63.13
2023-09-30T17:56:44.209Z,63.16
2023-09-30T17:59:13.916Z,63.30
2023-09-30T18:01:43.270Z,63.41
2023-09-30T18:04:11.123Z,63.57
2023-09-30T18:06:38.944Z,63.41
2023-09-30T18:09:09.017Z,63.21
2023-09-30T18:11:37.148Z,63.29
2023-09-30T18:14:04.156Z,63.62
2023-09-30T18:16:31.028Z,63.33
2023-09-30T18:18:58.138Z,63.57
2023-09-30T18:21:25.246Z,63.29
2023-09-30T18:23:52.282Z,62.85
2023-09-30T18:26:19.071Z,63.44
2023-09-30T18:28:45.847Z,63.61
2023-09-30T18:31:18.109Z,62.86
2023-09-30T18:33:45.058Z,63.66
2023-09-30T18:36:12.099Z,63.72
2023-09-30T18:38:39.387Z,63.84
2023-09-30T18:41:17.156Z,63.91
2023-09-30T18:43:44.895Z,63.91
2023-09-30T18:46:15.845Z,64.18
2023-09-30T18:48:43.386Z,64.10
2023-09-30T18:51:10.733Z,63.96
2023-09-30T18:53:39.549Z,64.13
2023-09-30T18:56:08.715Z,64.13
2023-09-30T18:58:35.687Z,64.20
2023-09-30T19:01:05.088Z,64.26
2023-09-30T19:03:33.221Z,64.46
2023-09-30T19:06:08.213Z,64.51
2023-09-30T19:08:45.339Z,64.48
2023-09-30T19:11:12.549Z,64.83
2023-09-30T19:13:40.810Z,64.61
2023-09-30T19:16:08.008Z,64.82
2023-09-30T19:18:35.909Z,64.87
2023-09-30T19:21:03.006Z,64.91
2023-09-30T19:23:32.577Z,65.20
2023-09-30T19:26:00.408Z,65.06
2023-09-30T19:28:27.524Z,65.45
2023-09-30T19:30:56.378Z,65.17
2023-09-30T19:33:23.268Z,65.06
2023-09-30T19:35:50.795Z,65.29
2023-09-30T19:38:18.789Z,65.10
2023-09-30T19:40:45.549Z,65.12
2023-09-30T19:43:12.403Z,65.36
2023-09-30T19:45:40.303Z,65.35
2023-09-30T19:48:07.394Z,65.08
2023-09-30T19:50:34.984Z,64.89
2023-09-30T19:53:02.089Z,65.14
2023-09-30T19:55:29.228Z,64.91
2023-09-30T19:57:56.132Z,64.90
2023-09-30T20:00:23.617Z,64.93
2023-09-30T20:02:50.425Z,64.99
2023-09-30T20:05:18.063Z,65.30
2023-09-30T20:07:44.884Z,65.42
2023-09-30T20:10:11.803Z,65.16
2023-09-30T20:12:39.496Z,65.35
2023-09-30T20:15:07.074Z,64.94
2023-09-30T20:17:33.975Z,65.29
2023-09-30T20:20:01.861Z,65.02
2023-09-30T20:22:30.805Z,65.08
2023-09-30T20:25:00.686Z,65.17
2023-09-30T20:27:28.304Z,64.93
2023-09-30T20:29:55.298Z,64.99
2023-09-30T20:32:22.115Z,64.99
2023-09-30T20:34:48.922Z,65.52
2023-09-30T20:37:15.760Z,65.39
2023-09-30T20:39:43.357Z,65.53
2023-09-30T20:42:11.253Z,65.54
2023-09-30T20:44:38.018Z,65.01
2023-09-30T20:47:05.024Z,65.37
2023-09-30T20:49:32.018Z,65.01
2023-09-30T20:52:00.198Z,65.12
2023-09-30T20:54:27.192Z,65.20
2023-09-30T20:56:55.184Z,65.07
2023-09-30T20:59:22.428Z,65.10
2023-09-30T21:01:49.790Z,65.32
2023-09-30T21:04:16.808Z,65.33
2023-09-30T21:06:45.112Z,65.30
2023-09-30T21:09:14.050Z,65.35
2023-09-30T21:11:41.919Z,65.63
2023-09-30T21:14:09.399Z,65.54
2023-09-30T21:16:39.212Z,65.65
2023-09-30T21:19:07.036Z,65.49
2023-09-30T21:21:34.426Z,65.34
2023-09-30T21:24:01.996Z,65.41
2023-09-30T21:26:28.815Z,65.47
2023-09-30T21:28:55.628Z,65.74
2023-09-30T21:31:23.731Z,65.48
2023-09-30T21:33:51.266Z,65.66
2023-09-30T21:36:21.606Z,65.51
2023-09-30T21:38:50.064Z,65.61
2023-09-30T21:41:20.388Z,65.64
2023-09-30T21:43:47.671Z,65.52
2023-09-30T21:46:14.848Z,65.64
2023-09-30T21:48:41.957Z,65.91
2023-09-30T21:51:09.039Z,65.48
2023-09-30T21:53:36.375Z,65.14
2023-09-30T21:56:04.068Z,65.13
2023-09-30T21:58:32.766Z,64.87
2023-09-30T22:01:00.022Z,65.29
2023-09-30T22:03:29.073Z,64.87
2023-09-30T22:06:00.112Z,65.12
2023-09-30T22:08:27.557Z,65.14
2023-09-30T22:10:55.378Z,65.19
2023-09-30T22:13:23.492Z,65.23
2023-09-30T22:15:50.380Z,65.02
2023-09-30T22:18:17.704Z,65.18
2023-09-30T22:20:44.567Z,65.00
2023-09-30T22:23:11.608Z,64.80
2023-09-30T22:25:39.088Z,65.20
2023-09-30T22:28:08.865Z,65.29
2023-09-30T22:30:37.447Z,64.88
2023-09-30T22:33:05.919Z,65.14
2023-09-30T22:35:33.103Z,65.28
2023-09-30T22:38:00.917Z,65.38
2023-09-30T22:40:27.893Z,65.18
2023-09-30T22:42:56.171Z,65.35
2023-09-30T22:45:23.223Z,65.39
2023-09-30T22:47:51.954Z,65.41
2023-09-30T22:50:22.476Z,65.21
2023-09-30T22:52:50.487Z,65.33
2023-09-30T22:55:21.968Z,65.26
2023-09-30T22:57:50.806Z,65.21
2023-09-30T23:00:20.537Z,65.28
2023-09-30T23:02:48.529Z,65.29
2023-09-30T23:05:17.202Z,65.42
2023-09-30T23:07:46.015Z,65.78
2023-09-30T23:10:15.378Z,65.32
2023-09-30T23:12:42.370Z,65.47
2023-09-30T23:15:18.683Z,65.21
2023-09-30T23:17:47.223Z,65.45
2023-09-30T23:20:16.635Z,65.43
2023-09-30T23:22:49.640Z,65.35
2023-09-30T23:25:36.287Z,65.77
2023-09-30T23:28:04.081Z,65.69
2023-09-30T23:30:31.032Z,65.68
2023-09-30T23:32:59.316Z,65.50
2023-09-30T23:35:27.995Z,65.42
2023-09-30T23:38:03.159Z,65.43
2023-09-30T23:40:33.854Z,65.29
2023-09-30T23:43:02.014Z,65.35
2023-09-30T23:45:31.884Z,65.46
2023-09-30T23:47:59.812Z,65.42
2023-09-30T23:50:27.418Z,65.06
2023-09-30T23:52:55.283Z,65.18
2023-09-30T23:55:26.198Z,65.00
2023-09-30T23:57:55.036Z,65.18
